Alcoa, Tennessee
Current Conditions -  °F | °C
As of 2:53 AM on Saturday 25 Oct 2014 (Local Time) from KTYS Reporting Station
Clear Clear  
Wind Chill: 44°   Ceiling: Unl
Heat Index: 44°   Visibility: 10mi
Dew Point: 41°   Wind: 3mph
Humidity: 89%   Direction: 50°NE
Pressure: 30.08"   Gusts: NA
Location:  35.77°N, 83.98°W
Report Text: KTYS 250653Z 05003KT 10SM CLR 07/05 A3008 RMK AO2 SLP183 T00670050
Loading
Personal Weather Stations






























Interactive Weather Map
Tropical Storm Tracking
New forecast layout! Learn more

10-Day Weather Forecast

Advertisements
Track Severe Weather on mobile